Time,TemperatureF,DewpointF,PressureIn,WindDirection,WindDirectionDegrees,WindSpeedMPH,WindSpeedGustMPH,Humidity,HourlyPrecipIn,Conditions,Clouds,dailyrainin,SoftwareType,DateUTC
2013-03-07 04:40:00,33.9,29.3,30.15,NNW,341,0.0,2.0,83,0.01,,---,0.01,VWS V14.01,2013-03-07 09:40:00,
2013-03-07 04:50:00,33.9,29.3,30.15,NNE,31,0.0,5.0,83,0.00,,---,0.01,VWS V14.01,2013-03-07 09:50:00,
2013-03-07 05:00:00,33.8,29.5,30.15,NNE,23,1.0,2.0,84,0.00,,---,0.01,VWS V14.01,2013-03-07 10:00:00,
2013-03-07 05:10:00,33.6,29.3,30.15,SSW,199,0.0,4.0,84,0.00,,---,0.01,VWS V14.01,2013-03-07 10:10:00,
2013-03-07 05:20:00,33.6,29.3,30.15,NW,313,4.0,6.0,84,0.00,,---,0.01,VWS V14.01,2013-03-07 10:20:00,
2013-03-07 05:30:00,33.4,29.1,30.16,NNW,346,0.0,4.0,84,0.00,,---,0.01,VWS V14.01,2013-03-07 10:30:00,
2013-03-07 05:33:00,34.0,29.4,30.14,WNW,301,1.0,1.0,83,0.01,,---,0.01,VWS V14.01,2013-03-07 10:33:00,
2013-03-07 05:38:00,33.9,29.3,30.15,WNW,301,2.0,2.0,83,0.01,,---,0.01,VWS V14.01,2013-03-07 10:38:00,
2013-03-07 05:40:00,33.9,29.3,30.15,NNW,341,0.0,2.0,83,0.01,,---,0.01,VWS V14.01,2013-03-07 10:40:00,
2013-03-07 05:43:00,33.9,29.3,30.15,WNW,284,2.0,3.0,83,0.00,,---,0.01,VWS V14.01,2013-03-07 10:43:00,
2013-03-07 05:48:00,33.9,29.3,30.15,WSW,238,0.0,5.0,83,0.00,,---,0.01,VWS V14.01,2013-03-07 10:48:00,
2013-03-07 05:50:00,33.9,29.3,30.15,NNE,31,0.0,5.0,83,0.00,,---,0.01,VWS V14.01,2013-03-07 10:50:00,
2013-03-07 05:53:00,33.9,29.3,30.15,NNW,330,0.0,2.0,83,0.00,,---,0.01,VWS V14.01,2013-03-07 10:53:00,
2013-03-07 05:58:00,33.8,29.5,30.15,ESE,116,0.0,2.0,84,0.00,,---,0.01,VWS V14.01,2013-03-07 10:58:00,
2013-03-07 06:00:00,33.8,29.5,30.15,NNE,23,1.0,2.0,84,0.00,,---,0.01,VWS V14.01,2013-03-07 11:00:00,
2013-03-07 06:03:00,33.7,29.4,30.15,SSW,211,0.0,3.0,84,0.00,,---,0.01,VWS V14.01,2013-03-07 11:03:00,
2013-03-07 06:08:00,33.6,29.3,30.15,WSW,252,0.0,4.0,84,0.00,,---,0.01,VWS V14.01,2013-03-07 11:08:00,
2013-03-07 06:10:00,33.6,29.3,30.15,SSW,199,0.0,4.0,84,0.00,,---,0.01,VWS V14.01,2013-03-07 11:10:00,
2013-03-07 06:13:00,33.6,29.3,30.15,NE,35,1.0,5.0,84,0.00,,---,0.01,VWS V14.01,2013-03-07 11:13:00,
2013-03-07 06:18:00,33.6,29.3,30.15,WSW,257,2.0,6.0,84,0.00,,---,0.01,VWS V14.01,2013-03-07 11:18:00,
2013-03-07 06:20:00,33.6,29.3,30.15,NW,313,4.0,6.0,84,0.00,,---,0.01,VWS V14.01,2013-03-07 11:20:00,
2013-03-07 06:23:00,33.5,29.2,30.16,East,93,0.0,4.0,84,0.00,,---,0.01,VWS V14.01,2013-03-07 11:23:00,
2013-03-07 06:28:00,33.4,29.1,30.16,East,92,0.0,4.0,84,0.00,,---,0.01,VWS V14.01,2013-03-07 11:28:00,
2013-03-07 06:30:00,33.4,29.1,30.16,NNW,346,0.0,4.0,84,0.00,,---,0.01,VWS V14.01,2013-03-07 11:30:00,
2013-03-07 06:33:00,33.3,29.0,30.16,SSW,203,1.0,7.0,84,0.00,,---,0.01,VWS V14.01,2013-03-07 11:33:00,
2013-03-07 06:38:00,33.2,29.2,30.16,NW,306,3.0,7.0,85,0.00,,---,0.01,VWS V14.01,2013-03-07 11:38:00,
2013-03-07 06:40:00,33.2,29.2,30.16,NW,320,4.0,7.0,85,0.00,,---,0.01,VWS V14.01,2013-03-07 11:40:00,
2013-03-07 06:43:00,33.2,29.2,30.16,WSW,246,4.0,6.0,85,0.00,,---,0.01,VWS V14.01,2013-03-07 11:43:00,
2013-03-07 06:48:00,33.2,29.2,30.17,NW,309,1.0,6.0,85,0.00,,---,0.01,VWS V14.01,2013-03-07 11:48:00,
2013-03-07 06:50:00,33.2,29.2,30.17,SW,226,4.0,6.0,85,0.00,,---,0.01,VWS V14.01,2013-03-07 11:50:00,
2013-03-07 06:53:00,33.1,29.1,30.17,NE,53,0.0,4.0,85,0.00,,---,0.01,VWS V14.01,2013-03-07 11:53:00,
2013-03-07 06:58:00,33.0,29.3,30.17,SE,142,1.0,5.0,86,0.00,,---,0.01,VWS V14.01,2013-03-07 11:58:00,
2013-03-07 07:00:00,33.1,29.4,30.17,ESE,103,0.0,5.0,86,0.00,,---,0.01,VWS V14.01,2013-03-07 12:00:00,
2013-03-07 07:04:00,33.0,29.3,30.18,WNW,284,0.0,2.0,86,0.00,,---,0.01,VWS V14.01,2013-03-07 12:04:00,
2013-03-07 07:09:00,33.0,29.3,30.18,WNW,283,3.0,8.0,86,0.00,,---,0.01,VWS V14.01,2013-03-07 12:09:00,
2013-03-07 07:10:00,33.0,29.3,30.18,NNW,329,2.0,8.0,86,0.00,,---,0.01,VWS V14.01,2013-03-07 12:10:00,
2013-03-07 07:14:00,33.0,29.3,30.18,WSW,241,2.0,7.0,86,0.00,,---,0.01,VWS V14.01,2013-03-07 12:14:00,
2013-03-07 07:19:00,33.1,29.4,30.18,NNW,335,1.0,7.0,86,0.00,,---,0.01,VWS V14.01,2013-03-07 12:19:00,
2013-03-07 07:20:00,33.0,29.3,30.18,WNW,286,0.0,7.0,86,0.00,,---,0.01,VWS V14.01,2013-03-07 12:20:00,
2013-03-07 07:24:00,33.1,29.4,30.19,WNW,290,1.0,4.0,86,0.00,,---,0.01,VWS V14.01,2013-03-07 12:24:00,
2013-03-07 07:29:00,33.1,29.4,30.19,NW,306,3.0,4.0,86,0.00,,---,0.01,VWS V14.01,2013-03-07 12:29:00,
2013-03-07 07:30:00,33.1,29.4,30.19,NW,309,2.0,4.0,86,0.00,,---,0.01,VWS V14.01,2013-03-07 12:30:00,
2013-03-07 07:34:00,33.1,29.4,30.19,NW,306,1.0,4.0,86,0.00,,---,0.01,VWS V14.01,2013-03-07 12:34:00,
2013-03-07 07:39:00,33.1,29.4,30.20,NNW,335,1.0,4.0,86,0.00,,---,0.01,VWS V14.01,2013-03-07 12:39:00,
2013-03-07 07:40:00,33.2,29.5,30.20,NNW,348,0.0,4.0,86,0.00,,---,0.01,VWS V14.01,2013-03-07 12:40:00,
2013-03-07 07:44:00,33.2,29.5,30.20,WSW,257,0.0,2.0,86,0.00,,---,0.01,VWS V14.01,2013-03-07 12:44:00,
2013-03-07 07:49:00,33.2,29.5,30.20,NW,323,0.0,2.0,86,0.00,,---,0.01,VWS V14.01,2013-03-07 12:49:00,
2013-03-07 07:50:00,33.2,29.5,30.20,NW,323,0.0,2.0,86,0.00,,---,0.01,VWS V14.01,2013-03-07 12:50:00,
2013-03-07 07:54:00,33.2,29.5,30.20,WSW,253,0.0,0.0,86,0.00,,---,0.01,VWS V14.01,2013-03-07 12:54:00,
2013-03-07 07:59:00,33.3,29.6,30.20,NNE,27,2.0,3.0,86,0.00,,---,0.01,VWS V14.01,2013-03-07 12:59:00,
2013-03-07 08:00:00,33.3,29.6,30.20,North,351,2.0,3.0,86,0.00,,---,0.01,VWS V14.01,2013-03-07 13:00:00,
2013-03-07 08:04:00,33.3,29.6,30.21,WNW,288,0.0,4.0,86,0.00,,---,0.01,VWS V14.01,2013-03-07 13:04:00,
2013-03-07 08:09:00,33.3,29.6,30.21,SW,229,0.0,4.0,86,0.00,,---,0.01,VWS V14.01,2013-03-07 13:09:00,
2013-03-07 08:10:00,33.3,29.6,30.21,SW,229,0.0,4.0,86,0.00,,---,0.01,VWS V14.01,2013-03-07 13:10:00,
2013-03-07 08:14:00,33.3,29.6,30.21,NW,319,0.0,1.0,86,0.00,,---,0.01,VWS V14.01,2013-03-07 13:14:00,
2013-03-07 08:19:00,33.4,29.7,30.21,WSW,246,0.0,1.0,86,0.00,,---,0.01,VWS V14.01,2013-03-07 13:19:00,
2013-03-07 08:20:00,33.4,29.7,30.21,WSW,246,0.0,1.0,86,0.00,,---,0.01,VWS V14.01,2013-03-07 13:20:00,
2013-03-07 08:24:00,33.4,29.7,30.22,SW,219,0.0,2.0,86,0.00,,---,0.01,VWS V14.01,2013-03-07 13:24:00,
2013-03-07 08:29:00,33.4,29.7,30.22,SW,223,0.0,2.0,86,0.00,,---,0.01,VWS V14.01,2013-03-07 13:29:00,
2013-03-07 08:30:00,33.4,29.7,30.22,SW,223,0.0,2.0,86,0.00,,---,0.01,VWS V14.01,2013-03-07 13:30:00,
2013-03-07 08:34:00,33.5,29.8,30.22,WSW,252,0.0,3.0,86,0.00,,---,0.01,VWS V14.01,2013-03-07 13:34:00,
2013-03-07 08:39:00,33.6,29.9,30.22,SSW,209,0.0,0.0,86,0.00,,---,0.01,VWS V14.01,2013-03-07 13:39:00,
2013-03-07 08:40:00,33.6,29.9,30.22,SSW,209,0.0,4.0,86,0.00,,---,0.01,VWS V14.01,2013-03-07 13:40:00,
2013-03-07 08:44:00,33.7,30.0,30.22,SW,214,0.0,3.0,86,0.00,,---,0.01,VWS V14.01,2013-03-07 13:44:00,
2013-03-07 08:49:00,33.7,30.0,30.22,East,94,0.0,1.0,86,0.00,,---,0.01,VWS V14.01,2013-03-07 13:49:00,
2013-03-07 08:50:00,33.7,30.0,30.22,WSW,252,1.0,3.0,86,0.00,,---,0.01,VWS V14.01,2013-03-07 13:50:00,
2013-03-07 08:54:00,33.9,29.9,30.22,WNW,284,0.0,2.0,85,0.00,,---,0.01,VWS V14.01,2013-03-07 13:54:00,
2013-03-07 08:59:00,33.9,29.9,30.22,SSW,200,1.0,1.0,85,0.00,,---,0.01,VWS V14.01,2013-03-07 13:59:00,
2013-03-07 09:00:00,33.9,29.9,30.22,ESE,103,1.0,3.0,85,0.00,,---,0.01,VWS V14.01,2013-03-07 14:00:00,
2013-03-07 09:04:00,34.0,30.0,30.22,NE,53,0.0,4.0,85,0.00,,---,0.01,VWS V14.01,2013-03-07 14:04:00,
2013-03-07 09:10:00,34.1,30.1,30.22,ESE,116,0.0,4.0,85,0.00,,---,0.01,VWS V14.01,2013-03-07 14:10:00,
2013-03-07 09:15:00,34.2,30.2,30.22,SE,136,1.0,4.0,85,0.00,,---,0.01,VWS V14.01,2013-03-07 14:15:00,
2013-03-07 09:20:00,34.2,30.2,30.22,WSW,244,0.0,0.0,85,0.00,,---,0.01,VWS V14.01,2013-03-07 14:20:00,
2013-03-07 09:25:00,34.3,30.3,30.22,SE,128,0.0,3.0,85,0.00,,---,0.01,VWS V14.01,2013-03-07 14:25:00,
2013-03-07 09:30:00,34.3,30.0,30.22,SSW,200,0.0,2.0,84,0.00,,---,0.01,VWS V14.01,2013-03-07 14:30:00,
2013-03-07 09:35:00,34.4,30.1,30.22,WSW,246,0.0,5.0,84,0.00,,---,0.01,VWS V14.01,2013-03-07 14:35:00,
2013-03-07 09:40:00,34.6,30.3,30.22,ENE,73,1.0,1.0,84,0.00,,---,0.01,VWS V14.01,2013-03-07 14:40:00,
2013-03-07 09:45:00,34.7,30.1,30.22,WNW,288,4.0,9.0,83,0.00,,---,0.01,VWS V14.01,2013-03-07 14:45:00,
2013-03-07 09:50:00,34.8,30.2,30.22,South,185,0.0,2.0,83,0.00,,---,0.01,VWS V14.01,2013-03-07 14:50:00,
2013-03-07 09:55:00,34.9,30.3,30.22,South,178,4.0,8.0,83,0.00,,---,0.01,VWS V14.01,2013-03-07 14:55:00,
2013-03-07 10:00:00,35.0,30.1,30.22,WSW,254,3.0,6.0,82,0.00,,---,0.01,VWS V14.01,2013-03-07 15:00:00,
2013-03-07 10:05:00,35.2,30.3,30.23,West,259,1.0,6.0,82,0.00,,---,0.01,VWS V14.01,2013-03-07 15:05:00,
2013-03-07 10:10:00,35.4,30.5,30.22,NNW,330,2.0,6.0,82,0.01,,---,0.02,VWS V14.01,2013-03-07 15:10:00,
2013-03-07 10:15:00,35.4,30.5,30.23,SW,215,5.0,6.0,82,0.01,,---,0.02,VWS V14.01,2013-03-07 15:15:00,
2013-03-07 10:20:00,35.5,30.3,30.23,West,267,1.0,5.0,81,0.01,,---,0.02,VWS V14.01,2013-03-07 15:20:00,
2013-03-07 10:25:00,35.5,30.3,30.23,WNW,284,3.0,5.0,81,0.01,,---,0.02,VWS V14.01,2013-03-07 15:25:00,
2013-03-07 10:30:00,35.6,30.4,30.23,ESE,120,2.0,5.0,81,0.01,,---,0.02,VWS V14.01,2013-03-07 15:30:00,
2013-03-07 10:35:00,35.6,30.4,30.23,WSW,248,1.0,5.0,81,0.01,,---,0.02,VWS V14.01,2013-03-07 15:35:00,
2013-03-07 10:40:00,35.7,30.5,30.23,SSW,194,1.0,3.0,81,0.01,,---,0.02,VWS V14.01,2013-03-07 15:40:00,
2013-03-07 10:45:00,35.7,30.1,30.23,ENE,69,1.0,6.0,80,0.01,,---,0.02,VWS V14.01,2013-03-07 15:45:00,
2013-03-07 10:50:00,35.8,30.2,30.23,WSW,241,0.0,2.0,80,0.01,,---,0.02,VWS V14.01,2013-03-07 15:50:00,
2013-03-07 10:55:00,36.0,30.4,30.23,NNW,331,1.0,7.0,80,0.01,,---,0.02,VWS V14.01,2013-03-07 15:55:00,
2013-03-07 11:00:00,36.0,30.1,30.24,NNE,13,3.0,3.0,79,0.01,,---,0.02,VWS V14.01,2013-03-07 16:00:00,
2013-03-07 11:05:00,36.2,30.3,30.24,SE,143,2.0,7.0,79,0.01,,---,0.02,VWS V14.01,2013-03-07 16:05:00,
2013-03-07 11:10:00,36.2,30.3,30.24,WSW,237,6.0,8.0,79,0.02,,---,0.03,VWS V14.01,2013-03-07 16:10:00,
2013-03-07 11:11:00,36.3,30.1,30.24,ENE,65,2.0,6.0,78,0.02,,---,0.03,VWS V14.01,2013-03-07 16:11:00,
2013-03-07 11:16:00,36.4,30.2,30.24,SSW,199,1.0,8.0,78,0.02,,---,0.03,VWS V14.01,2013-03-07 16:16:00,
2013-03-07 11:20:00,36.6,30.4,30.24,NW,309,2.0,8.0,78,0.02,,---,0.03,VWS V14.01,2013-03-07 16:20:00,
2013-03-07 11:21:00,36.8,30.3,30.24,WSW,254,1.0,3.0,77,0.01,,---,0.03,VWS V14.01,2013-03-07 16:21:00,
2013-03-07 11:26:00,37.0,29.8,30.23,SSE,155,8.0,10.0,75,0.01,,---,0.03,VWS V14.01,2013-03-07 16:26:00,
2013-03-07 11:30:00,37.2,30.0,30.23,WSW,242,0.0,10.0,75,0.01,,---,0.03,VWS V14.01,2013-03-07 16:30:00,
2013-03-07 11:31:00,37.4,30.5,30.24,ENE,69,0.0,2.0,76,0.01,,---,0.03,VWS V14.01,2013-03-07 16:31:00,
2013-03-07 11:36:00,37.7,30.2,30.24,NNW,330,3.0,9.0,74,0.01,,---,0.03,VWS V14.01,2013-03-07 16:36:00,
2013-03-07 11:40:00,37.7,30.2,30.23,ESE,105,1.0,9.0,74,0.01,,---,0.03,VWS V14.01,2013-03-07 16:40:00,
2013-03-07 11:41:00,37.8,30.3,30.23,WSW,249,4.0,6.0,74,0.01,,---,0.03,VWS V14.01,2013-03-07 16:41:00,
2013-03-07 11:46:00,38.1,29.9,30.23,NW,306,5.0,6.0,72,0.01,,---,0.03,VWS V14.01,2013-03-07 16:46:00,
2013-03-07 11:50:00,38.1,29.5,30.23,WSW,254,0.0,6.0,71,0.01,,---,0.03,VWS V14.01,2013-03-07 16:50:00,
2013-03-07 11:51:00,38.2,29.6,30.23,WNW,298,3.0,7.0,71,0.01,,---,0.03,VWS V14.01,2013-03-07 16:51:00,
2013-03-07 11:56:00,38.4,28.8,30.23,NW,306,5.0,9.0,68,0.01,,---,0.03,VWS V14.01,2013-03-07 16:56:00,
2013-03-07 12:00:00,38.2,28.2,30.23,NNW,339,7.0,11.0,67,0.02,,---,0.04,VWS V14.01,2013-03-07 17:00:00,
2013-03-07 12:01:00,38.1,28.5,30.23,NE,44,3.0,7.0,68,0.02,,---,0.04,VWS V14.01,2013-03-07 17:01:00,
2013-03-07 12:06:00,38.4,29.1,30.23,WNW,290,4.0,8.0,69,0.02,,---,0.04,VWS V14.01,2013-03-07 17:06:00,
2013-03-07 12:10:00,38.5,28.5,30.23,SW,227,3.0,8.0,67,0.02,,---,0.04,VWS V14.01,2013-03-07 17:10:00,
2013-03-07 12:11:00,38.6,29.0,30.23,NW,323,6.0,9.0,68,0.01,,---,0.04,VWS V14.01,2013-03-07 17:11:00,
2013-03-07 12:16:00,38.7,28.0,30.23,NW,319,5.0,9.0,65,0.01,,---,0.04,VWS V14.01,2013-03-07 17:16:00,
2013-03-07 12:20:00,38.9,28.9,30.23,NW,309,6.0,10.0,67,0.01,,---,0.04,VWS V14.01,2013-03-07 17:20:00,
2013-03-07 12:21:00,38.9,28.5,30.23,ESE,123,5.0,6.0,66,0.01,,---,0.04,VWS V14.01,2013-03-07 17:21:00,
2013-03-07 12:26:00,38.8,27.7,30.23,NW,317,5.0,9.0,64,0.01,,---,0.04,VWS V14.01,2013-03-07 17:26:00,
2013-03-07 12:30:00,38.7,28.0,30.23,NW,325,8.0,10.0,65,0.01,,---,0.04,VWS V14.01,2013-03-07 17:30:00,
2013-03-07 12:31:00,38.6,28.2,30.23,NNW,328,2.0,9.0,66,0.01,,---,0.04,VWS V14.01,2013-03-07 17:31:00,
2013-03-07 12:36:00,38.5,28.5,30.23,West,260,4.0,9.0,67,0.01,,---,0.04,VWS V14.01,2013-03-07 17:36:00,
2013-03-07 12:40:00,38.4,28.4,30.23,NW,321,3.0,9.0,67,0.01,,---,0.04,VWS V14.01,2013-03-07 17:40:00,
2013-03-07 12:41:00,38.3,28.7,30.23,NW,313,5.0,7.0,68,0.01,,---,0.04,VWS V14.01,2013-03-07 17:41:00,
2013-03-07 12:46:00,38.1,28.1,30.23,NW,304,7.0,10.0,67,0.01,,---,0.04,VWS V14.01,2013-03-07 17:46:00,
2013-03-07 12:50:00,38.0,28.4,30.23,NNW,342,1.0,10.0,68,0.01,,---,0.04,VWS V14.01,2013-03-07 17:50:00,
2013-03-07 12:51:00,38.0,28.4,30.23,SW,217,0.0,2.0,68,0.01,,---,0.04,VWS V14.01,2013-03-07 17:51:00,
2013-03-07 12:56:00,38.1,28.8,30.23,NNW,340,5.0,6.0,69,0.01,,---,0.04,VWS V14.01,2013-03-07 17:56:00,
2013-03-07 13:00:00,38.2,28.6,30.23,West,271,6.0,9.0,68,0.01,,---,0.04,VWS V14.01,2013-03-07 18:00:00,
2013-03-07 13:01:00,38.2,27.9,30.22,WNW,290,6.0,12.0,66,0.00,,---,0.04,VWS V14.01,2013-03-07 18:01:00,
2013-03-07 13:06:00,38.2,28.2,30.23,NW,310,3.0,12.0,67,0.00,,---,0.04,VWS V14.01,2013-03-07 18:06:00,
2013-03-07 13:10:00,38.2,27.9,30.23,NE,35,2.0,12.0,66,0.00,,---,0.04,VWS V14.01,2013-03-07 18:10:00,
2013-03-07 13:11:00,38.2,28.2,30.22,WNW,290,6.0,8.0,67,0.00,,---,0.04,VWS V14.01,2013-03-07 18:11:00,
2013-03-07 13:16:00,38.4,27.3,30.22,WNW,301,5.0,9.0,64,0.00,,---,0.04,VWS V14.01,2013-03-07 18:16:00,
2013-03-07 13:20:00,38.5,27.8,30.22,NW,323,2.0,9.0,65,0.00,,---,0.04,VWS V14.01,2013-03-07 18:20:00,
2013-03-07 13:21:00,38.6,27.5,30.22,NNW,327,3.0,8.0,64,0.00,,---,0.04,VWS V14.01,2013-03-07 18:21:00,
2013-03-07 13:26:00,38.8,28.1,30.22,NNE,29,0.0,8.0,65,0.00,,---,0.04,VWS V14.01,2013-03-07 18:26:00,
2013-03-07 13:30:00,38.9,27.8,30.22,NW,326,2.0,8.0,64,0.00,,---,0.04,VWS V14.01,2013-03-07 18:30:00,
2013-03-07 13:31:00,39.0,27.9,30.22,NW,324,9.0,11.0,64,0.00,,---,0.04,VWS V14.01,2013-03-07 18:31:00,
2013-03-07 13:36:00,38.9,28.1,30.22,NNW,327,6.0,12.0,65,0.00,,---,0.04,VWS V14.01,2013-03-07 18:36:00,
2013-03-07 13:40:00,38.8,28.1,30.22,NNW,341,6.0,14.0,65,0.00,,---,0.04,VWS V14.01,2013-03-07 18:40:00,
2013-03-07 13:41:00,38.7,28.0,30.22,NW,320,5.0,12.0,65,0.00,,---,0.04,VWS V14.01,2013-03-07 18:41:00,
2013-03-07 13:46:00,38.5,28.5,30.22,NW,306,4.0,12.0,67,0.00,,---,0.04,VWS V14.01,2013-03-07 18:46:00,
2013-03-07 13:50:00,38.3,28.3,30.22,NW,319,3.0,12.0,67,0.00,,---,0.04,VWS V14.01,2013-03-07 18:50:00,
2013-03-07 13:51:00,38.3,28.7,30.22,WNW,298,3.0,6.0,68,0.00,,---,0.04,VWS V14.01,2013-03-07 18:51:00,
2013-03-07 13:57:00,38.2,28.9,30.22,WNW,283,7.0,8.0,69,0.00,,---,0.04,VWS V14.01,2013-03-07 18:57:00,
2013-03-07 14:00:00,38.1,29.5,30.22,NW,306,3.0,11.0,71,0.00,,---,0.04,VWS V14.01,2013-03-07 19:00:00,
2013-03-07 14:02:00,37.7,29.8,30.22,NW,313,6.0,12.0,73,0.00,,---,0.04,VWS V14.01,2013-03-07 19:02:00,
2013-03-07 14:07:00,37.5,30.3,30.22,NW,313,3.0,12.0,75,0.00,,---,0.04,VWS V14.01,2013-03-07 19:07:00,
2013-03-07 14:10:00,37.7,30.8,30.22,NW,323,3.0,12.0,76,0.00,,---,0.04,VWS V14.01,2013-03-07 19:10:00,
2013-03-07 14:12:00,38.1,30.9,30.22,NW,317,7.0,7.0,75,0.00,,---,0.04,VWS V14.01,2013-03-07 19:12:00,
2013-03-07 14:17:00,38.5,30.3,30.21,NNW,337,2.0,8.0,72,0.00,,---,0.04,VWS V14.01,2013-03-07 19:17:00,
2013-03-07 14:20:00,38.6,31.0,30.21,NE,46,2.0,8.0,74,0.00,,---,0.04,VWS V14.01,2013-03-07 19:20:00,
2013-03-07 14:22:00,38.8,30.2,30.22,NW,306,7.0,11.0,71,0.00,,---,0.04,VWS V14.01,2013-03-07 19:22:00,
2013-03-07 14:27:00,38.7,30.5,30.22,NNW,348,8.0,11.0,72,0.00,,---,0.04,VWS V14.01,2013-03-07 19:27:00,
2013-03-07 14:30:00,38.7,30.5,30.22,NNW,332,3.0,11.0,72,0.00,,---,0.04,VWS V14.01,2013-03-07 19:30:00,
2013-03-07 14:33:00,38.9,30.7,30.22,NNW,344,5.0,7.0,72,0.00,,---,0.04,VWS V14.01,2013-03-07 19:33:00,
2013-03-07 14:38:00,39.0,30.8,30.21,NW,320,7.0,10.0,72,0.00,,---,0.04,VWS V14.01,2013-03-07 19:38:00,
2013-03-07 14:40:00,38.9,30.7,30.21,WNW,303,8.0,10.0,72,0.00,,---,0.04,VWS V14.01,2013-03-07 19:40:00,
2013-03-07 14:43:00,38.8,30.9,30.22,NNW,331,6.0,9.0,73,0.00,,---,0.04,VWS V14.01,2013-03-07 19:43:00,
2013-03-07 14:48:00,38.8,31.2,30.22,ESE,106,5.0,9.0,74,0.00,,---,0.04,VWS V14.01,2013-03-07 19:48:00,
2013-03-07 14:50:00,38.8,31.2,30.22,NNW,344,4.0,9.0,74,0.00,,---,0.04,VWS V14.01,2013-03-07 19:50:00,
2013-03-07 14:53:00,38.7,31.1,30.22,NW,324,8.0,9.0,74,0.00,,---,0.04,VWS V14.01,2013-03-07 19:53:00,
2013-03-07 14:58:00,38.4,31.2,30.22,West,279,3.0,10.0,75,0.00,,---,0.04,VWS V14.01,2013-03-07 19:58:00,
2013-03-07 15:00:00,38.4,31.2,30.22,ESE,114,5.0,10.0,75,0.00,,---,0.04,VWS V14.01,2013-03-07 20:00:00,
2013-03-07 15:03:00,38.4,31.2,30.22,NW,306,5.0,6.0,75,0.00,,---,0.04,VWS V14.01,2013-03-07 20:03:00,
2013-03-07 15:08:00,38.4,31.2,30.22,SE,134,1.0,6.0,75,0.00,,---,0.04,VWS V14.01,2013-03-07 20:08:00,
2013-03-07 15:10:00,38.4,31.5,30.22,WNW,295,1.0,6.0,76,0.00,,---,0.04,VWS V14.01,2013-03-07 20:10:00,
2013-03-07 15:13:00,38.5,31.9,30.22,South,169,1.0,6.0,77,0.00,,---,0.04,VWS V14.01,2013-03-07 20:13:00,
2013-03-07 15:18:00,38.2,31.3,30.22,West,273,2.0,7.0,76,0.00,,---,0.04,VWS V14.01,2013-03-07 20:18:00,
2013-03-07 15:20:00,38.2,31.3,30.22,WNW,286,2.0,7.0,76,0.00,,---,0.04,VWS V14.01,2013-03-07 20:20:00,
2013-03-07 15:23:00,38.3,31.7,30.22,SE,140,2.0,4.0,77,0.00,,---,0.04,VWS V14.01,2013-03-07 20:23:00,
2013-03-07 15:28:00,38.7,31.8,30.22,NW,306,2.0,5.0,76,0.00,,---,0.04,VWS V14.01,2013-03-07 20:28:00,
2013-03-07 15:30:00,38.7,31.5,30.22,NW,306,5.0,8.0,75,0.00,,---,0.04,VWS V14.01,2013-03-07 20:30:00,
2013-03-07 15:33:00,38.7,31.1,30.22,WNW,301,3.0,7.0,74,0.00,,---,0.04,VWS V14.01,2013-03-07 20:33:00,
2013-03-07 15:38:00,38.7,31.1,30.22,NNE,15,2.0,8.0,74,0.00,,---,0.04,VWS V14.01,2013-03-07 20:38:00,
2013-03-07 15:40:00,38.7,31.1,30.22,ESE,117,1.0,8.0,74,0.00,,---,0.04,VWS V14.01,2013-03-07 20:40:00,
2013-03-07 15:43:00,38.9,31.7,30.22,NNW,328,3.0,6.0,75,0.00,,---,0.04,VWS V14.01,2013-03-07 20:43:00,
2013-03-07 15:48:00,39.0,31.4,30.22,West,259,0.0,6.0,74,0.00,,---,0.04,VWS V14.01,2013-03-07 20:48:00,
2013-03-07 15:50:00,39.0,31.4,30.22,NE,54,2.0,6.0,74,0.00,,---,0.04,VWS V14.01,2013-03-07 20:50:00,
2013-03-07 15:53:00,38.9,31.3,30.22,NNE,29,1.0,6.0,74,0.00,,---,0.04,VWS V14.01,2013-03-07 20:53:00,
2013-03-07 15:58:00,38.8,30.9,30.23,NNW,347,1.0,9.0,73,0.00,,---,0.04,VWS V14.01,2013-03-07 20:58:00,
2013-03-07 16:00:00,38.7,30.8,30.23,South,190,0.0,9.0,73,0.00,,---,0.04,VWS V14.01,2013-03-07 21:00:00,
2013-03-07 16:03:00,38.8,30.9,30.23,SW,225,0.0,7.0,73,0.00,,---,0.04,VWS V14.01,2013-03-07 21:03:00,
2013-03-07 16:08:00,38.7,30.5,30.22,WSW,245,3.0,7.0,72,0.00,,---,0.04,VWS V14.01,2013-03-07 21:08:00,
2013-03-07 16:10:00,38.6,30.4,30.22,SSW,198,0.0,7.0,72,0.00,,---,0.04,VWS V14.01,2013-03-07 21:10:00,
2013-03-07 16:13:00,38.5,30.6,30.22,WNW,286,3.0,8.0,73,0.00,,---,0.04,VWS V14.01,2013-03-07 21:13:00,
2013-03-07 16:18:00,38.6,30.7,30.22,SW,225,1.0,8.0,73,0.00,,---,0.04,VWS V14.01,2013-03-07 21:18:00,
2013-03-07 16:20:00,38.5,31.0,30.22,NE,55,2.0,8.0,74,0.00,,---,0.04,VWS V14.01,2013-03-07 21:20:00,
2013-03-07 16:23:00,38.4,30.9,30.22,WNW,284,1.0,6.0,74,0.00,,---,0.04,VWS V14.01,2013-03-07 21:23:00,
2013-03-07 16:28:00,38.2,30.7,30.22,SW,229,2.0,9.0,74,0.00,,---,0.04,VWS V14.01,2013-03-07 21:28:00,
2013-03-07 16:30:00,38.2,31.0,30.22,North,5,6.0,9.0,75,0.00,,---,0.04,VWS V14.01,2013-03-07 21:30:00,
2013-03-07 16:33:00,38.1,30.9,30.22,SSE,154,1.0,8.0,75,0.00,,---,0.04,VWS V14.01,2013-03-07 21:33:00,
2013-03-07 16:38:00,37.8,30.6,30.22,WNW,294,4.0,8.0,75,0.00,,---,0.04,VWS V14.01,2013-03-07 21:38:00,
2013-03-07 16:40:00,37.8,30.6,30.22,WNW,303,5.0,8.0,75,0.00,,---,0.04,VWS V14.01,2013-03-07 21:40:00,
2013-03-07 16:43:00,37.6,30.1,30.22,ESE,109,4.0,7.0,74,0.00,,---,0.04,VWS V14.01,2013-03-07 21:43:00,
2013-03-07 16:48:00,37.5,30.0,30.23,ENE,71,0.0,7.0,74,0.00,,---,0.04,VWS V14.01,2013-03-07 21:48:00,
2013-03-07 16:50:00,37.5,30.3,30.23,East,88,0.0,7.0,75,0.00,,---,0.04,VWS V14.01,2013-03-07 21:50:00,
2013-03-07 16:53:00,37.6,30.4,30.23,NE,49,1.0,5.0,75,0.00,,---,0.04,VWS V14.01,2013-03-07 21:53:00,
2013-03-07 16:58:00,37.5,30.3,30.23,South,178,0.0,9.0,75,0.00,,---,0.04,VWS V14.01,2013-03-07 21:58:00,
2013-03-07 17:00:00,37.5,30.3,30.23,ESE,114,1.0,9.0,75,0.00,,---,0.04,VWS V14.01,2013-03-07 22:00:00,
2013-03-07 17:04:00,37.8,30.6,30.23,SSW,211,2.0,6.0,75,0.00,,---,0.04,VWS V14.01,2013-03-07 22:04:00,
2013-03-07 17:09:00,38.2,30.7,30.23,WNW,283,1.0,7.0,74,0.00,,---,0.04,VWS V14.01,2013-03-07 22:09:00,
2013-03-07 17:10:00,38.3,30.8,30.23,WSW,250,4.0,7.0,74,0.00,,---,0.04,VWS V14.01,2013-03-07 22:10:00,
2013-03-07 17:13:00,38.5,31.0,30.23,SE,134,2.0,5.0,74,0.00,,---,0.04,VWS V14.01,2013-03-07 22:13:00,
2013-03-07 17:19:00,38.9,31.0,30.24,NNW,344,2.0,6.0,73,0.00,,---,0.04,VWS V14.01,2013-03-07 22:19:00,
2013-03-07 17:20:00,38.9,31.0,30.24,West,272,2.0,6.0,73,0.00,,---,0.04,VWS V14.01,2013-03-07 22:20:00,
2013-03-07 17:24:00,39.0,30.8,30.24,East,93,2.0,5.0,72,0.00,,---,0.04,VWS V14.01,2013-03-07 22:24:00,
2013-03-07 17:29:00,39.0,30.8,30.23,ENE,76,0.0,7.0,72,0.00,,---,0.04,VWS V14.01,2013-03-07 22:29:00,
2013-03-07 17:30:00,39.0,30.8,30.23,West,280,2.0,7.0,72,0.00,,---,0.04,VWS V14.01,2013-03-07 22:30:00,
2013-03-07 17:34:00,38.7,30.8,30.24,ENE,67,3.0,7.0,73,0.00,,---,0.04,VWS V14.01,2013-03-07 22:34:00,
2013-03-07 17:39:00,38.0,30.1,30.24,SSW,213,1.0,7.0,73,0.00,,---,0.04,VWS V14.01,2013-03-07 22:39:00,
2013-03-07 17:40:00,37.9,30.4,30.24,East,98,2.0,7.0,74,0.00,,---,0.04,VWS V14.01,2013-03-07 22:40:00,
2013-03-07 17:44:00,37.5,30.0,30.24,SW,232,1.0,8.0,74,0.00,,---,0.04,VWS V14.01,2013-03-07 22:44:00,
2013-03-07 17:49:00,37.2,30.0,30.24,SSE,152,5.0,8.0,75,0.00,,---,0.04,VWS V14.01,2013-03-07 22:49:00,
2013-03-07 17:50:00,37.2,30.0,30.24,SSE,147,2.0,8.0,75,0.00,,---,0.04,VWS V14.01,2013-03-07 22:50:00,
2013-03-07 17:54:00,36.9,30.0,30.25,WSW,254,3.0,6.0,76,0.00,,---,0.04,VWS V14.01,2013-03-07 22:54:00,
2013-03-07 17:59:00,36.8,30.3,30.25,East,84,1.0,6.0,77,0.00,,---,0.04,VWS V14.01,2013-03-07 22:59:00,
2013-03-07 18:00:00,36.8,30.3,30.25,South,176,1.0,6.0,77,0.00,,---,0.04,VWS V14.01,2013-03-07 23:00:00,
2013-03-07 18:04:00,36.6,30.4,30.25,East,83,3.0,3.0,78,0.00,,---,0.04,VWS V14.01,2013-03-07 23:04:00,
2013-03-07 18:09:00,36.5,30.3,30.25,WSW,248,2.0,7.0,78,0.00,,---,0.04,VWS V14.01,2013-03-07 23:09:00,
2013-03-07 18:10:00,36.5,30.6,30.25,West,274,2.0,7.0,79,0.00,,---,0.04,VWS V14.01,2013-03-07 23:10:00,
2013-03-07 18:14:00,36.4,30.5,30.24,NNW,346,0.0,5.0,79,0.00,,---,0.04,VWS V14.01,2013-03-07 23:14:00,
2013-03-07 18:19:00,36.3,30.4,30.25,WSW,252,1.0,5.0,79,0.00,,---,0.04,VWS V14.01,2013-03-07 23:19:00,
2013-03-07 18:20:00,36.3,30.4,30.25,WSW,252,1.0,5.0,79,0.00,,---,0.04,VWS V14.01,2013-03-07 23:20:00,
2013-03-07 18:24:00,36.2,30.3,30.25,SW,229,0.0,2.0,79,0.00,,---,0.04,VWS V14.01,2013-03-07 23:24:00,
2013-03-07 18:29:00,36.2,30.0,30.25,NW,321,0.0,6.0,78,0.00,,---,0.04,VWS V14.01,2013-03-07 23:29:00,
2013-03-07 18:30:00,36.2,30.0,30.25,NW,319,0.0,6.0,78,0.00,,---,0.04,VWS V14.01,2013-03-07 23:30:00,
2013-03-07 18:34:00,36.0,29.8,30.25,ESE,123,0.0,1.0,78,0.00,,---,0.04,VWS V14.01,2013-03-07 23:34:00,
2013-03-07 18:39:00,35.8,29.6,30.25,WNW,283,0.0,1.0,78,0.00,,---,0.04,VWS V14.01,2013-03-07 23:39:00,
2013-03-07 18:40:00,35.8,29.6,30.25,NW,304,0.0,1.0,78,0.00,,---,0.04,VWS V14.01,2013-03-07 23:40:00,
2013-03-07 18:44:00,35.6,29.4,30.26,West,276,1.0,1.0,78,0.00,,---,0.04,VWS V14.01,2013-03-07 23:44:00,
2013-03-07 18:49:00,35.4,29.2,30.26,NW,310,1.0,3.0,78,0.00,,---,0.04,VWS V14.01,2013-03-07 23:49:00,
2013-03-07 18:50:00,35.4,29.2,30.26,NW,310,2.0,3.0,78,0.00,,---,0.04,VWS V14.01,2013-03-07 23:50:00,
2013-03-07 18:54:00,35.3,29.1,30.26,WSW,248,0.0,4.0,78,0.00,,---,0.04,VWS V14.01,2013-03-07 23:54:00,
2013-03-07 18:59:00,35.2,29.4,30.26,ESE,108,0.0,4.0,79,0.00,,---,0.04,VWS V14.01,2013-03-07 23:59:00,
2013-03-07 19:00:00,35.2,29.4,30.26,ESE,108,0.0,4.0,79,0.00,,---,0.04,VWS V14.01,2013-03-08 00:00:00,
2013-03-07 19:04:00,35.2,29.4,30.26,West,276,0.0,4.0,79,0.00,,---,0.04,VWS V14.01,2013-03-08 00:04:00,
2013-03-07 19:09:00,35.0,29.5,30.26,WNW,295,1.0,4.0,80,0.00,,---,0.04,VWS V14.01,2013-03-08 00:09:00,
2013-03-07 19:10:00,35.0,29.5,30.26,WNW,295,1.0,4.0,80,0.00,,---,0.04,VWS V14.01,2013-03-08 00:10:00,
2013-03-07 19:14:00,34.9,29.4,30.26,SSW,203,0.0,1.0,80,0.00,,---,0.04,VWS V14.01,2013-03-08 00:14:00,
2013-03-07 19:19:00,34.9,29.7,30.26,SW,227,0.0,0.0,81,0.00,,---,0.04,VWS V14.01,2013-03-08 00:19:00,
2013-03-07 19:20:00,34.9,29.7,30.26,SW,227,0.0,1.0,81,0.00,,---,0.04,VWS V14.01,2013-03-08 00:20:00,
2013-03-07 19:24:00,34.8,29.6,30.26,NW,304,0.0,1.0,81,0.00,,---,0.04,VWS V14.01,2013-03-08 00:24:00,
2013-03-07 19:29:00,34.8,29.6,30.26,East,101,0.0,1.0,81,0.00,,---,0.04,VWS V14.01,2013-03-08 00:29:00,
2013-03-07 19:30:00,34.8,29.6,30.26,ESE,119,1.0,2.0,81,0.00,,---,0.04,VWS V14.01,2013-03-08 00:30:00,
2013-03-07 19:34:00,34.8,29.9,30.26,ESE,109,0.0,3.0,82,0.00,,---,0.04,VWS V14.01,2013-03-08 00:34:00,
2013-03-07 19:39:00,34.9,30.0,30.26,South,183,0.0,3.0,82,0.00,,---,0.04,VWS V14.01,2013-03-08 00:39:00,
2013-03-07 19:40:00,34.9,30.0,30.26,South,183,0.0,3.0,82,0.00,,---,0.04,VWS V14.01,2013-03-08 00:40:00,
2013-03-07 19:44:00,34.9,30.0,30.26,NW,308,6.0,6.0,82,0.00,,---,0.04,VWS V14.01,2013-03-08 00:44:00,
2013-03-07 19:50:00,35.1,30.2,30.26,WNW,290,0.0,1.0,82,0.00,,---,0.04,VWS V14.01,2013-03-08 00:50:00,
2013-03-07 19:55:00,35.2,30.3,30.26,NW,315,7.0,8.0,82,0.00,,---,0.04,VWS V14.01,2013-03-08 00:55:00,
2013-03-07 20:00:00,35.1,30.5,30.26,NW,321,1.0,6.0,83,0.00,,---,0.04,VWS V14.01,2013-03-08 01:00:00,
2013-03-07 20:05:00,34.9,30.6,30.26,WNW,296,4.0,9.0,84,0.00,,---,0.04,VWS V14.01,2013-03-08 01:05:00,
2013-03-07 20:10:00,34.7,30.7,30.27,NW,309,6.0,8.0,85,0.00,,---,0.04,VWS V14.01,2013-03-08 01:10:00,
2013-03-07 20:15:00,34.6,30.6,30.27,NW,304,2.0,8.0,85,0.00,,---,0.04,VWS V14.01,2013-03-08 01:15:00,
2013-03-07 20:20:00,34.5,30.8,30.27,North,349,0.0,4.0,86,0.00,,---,0.04,VWS V14.01,2013-03-08 01:20:00,
2013-03-07 20:25:00,34.3,30.6,30.27,NW,306,4.0,8.0,86,0.00,,---,0.04,VWS V14.01,2013-03-08 01:25:00,
2013-03-07 20:30:00,34.1,30.6,30.27,NW,306,6.0,7.0,87,0.00,,---,0.04,VWS V14.01,2013-03-08 01:30:00,
2013-03-07 20:35:00,34.0,30.8,30.28,WNW,302,5.0,7.0,88,0.00,,---,0.04,VWS V14.01,2013-03-08 01:35:00,
2013-03-07 20:40:00,33.8,30.9,30.28,NW,313,3.0,5.0,89,0.00,,---,0.04,VWS V14.01,2013-03-08 01:40:00,
2013-03-07 20:46:00,33.6,30.7,30.28,NW,325,1.0,6.0,89,0.00,,---,0.04,VWS V14.01,2013-03-08 01:46:00,
2013-03-07 20:50:00,33.5,30.9,30.28,NW,324,0.0,6.0,90,0.00,,---,0.04,VWS V14.01,2013-03-08 01:50:00,
2013-03-07 20:51:00,33.5,30.9,30.28,NW,304,2.0,4.0,90,0.00,,---,0.04,VWS V14.01,2013-03-08 01:51:00,
2013-03-07 20:56:00,33.4,30.8,30.28,WNW,300,3.0,4.0,90,0.00,,---,0.04,VWS V14.01,2013-03-08 01:56:00,
2013-03-07 21:00:00,33.4,30.8,30.28,NW,323,1.0,4.0,90,0.00,,---,0.04,VWS V14.01,2013-03-08 02:00:00,
2013-03-07 21:01:00,33.4,30.8,30.28,NNW,337,0.0,4.0,90,0.00,,---,0.04,VWS V14.01,2013-03-08 02:01:00,
2013-03-07 21:06:00,33.3,31.0,30.28,North,5,0.0,4.0,91,0.00,,---,0.04,VWS V14.01,2013-03-08 02:06:00,
2013-03-07 21:10:00,33.3,31.0,30.28,WNW,303,4.0,6.0,91,0.00,,---,0.04,VWS V14.01,2013-03-08 02:10:00,
2013-03-07 21:11:00,33.3,31.0,30.28,NW,319,0.0,4.0,91,0.00,,---,0.04,VWS V14.01,2013-03-08 02:11:00,
2013-03-07 21:16:00,33.3,31.0,30.28,NW,313,3.0,6.0,91,0.00,,---,0.04,VWS V14.01,2013-03-08 02:16:00,
2013-03-07 21:20:00,33.3,31.0,30.27,NW,323,0.0,6.0,91,0.00,,---,0.04,VWS V14.01,2013-03-08 02:20:00,
2013-03-07 21:21:00,33.3,31.0,30.27,WNW,297,0.0,2.0,91,0.00,,---,0.04,VWS V14.01,2013-03-08 02:21:00,
2013-03-07 21:26:00,33.2,30.9,30.28,NNE,17,0.0,2.0,91,0.00,,---,0.04,VWS V14.01,2013-03-08 02:26:00,
2013-03-07 21:30:00,33.2,30.9,30.28,NW,309,2.0,4.0,91,0.00,,---,0.04,VWS V14.01,2013-03-08 02:30:00,
2013-03-07 21:31:00,33.2,30.9,30.28,NW,315,2.0,3.0,91,0.00,,---,0.04,VWS V14.01,2013-03-08 02:31:00,
2013-03-07 21:36:00,33.3,31.0,30.28,NNW,331,5.0,5.0,91,0.00,,---,0.04,VWS V14.01,2013-03-08 02:36:00,
2013-03-07 21:40:00,33.2,30.9,30.28,NW,325,0.0,5.0,91,0.00,,---,0.04,VWS V14.01,2013-03-08 02:40:00,
2013-03-07 21:41:00,33.3,31.0,30.28,NW,306,4.0,4.0,91,0.00,,---,0.04,VWS V14.01,2013-03-08 02:41:00,
2013-03-07 21:46:00,33.2,30.9,30.28,NW,325,4.0,4.0,91,0.00,,---,0.04,VWS V14.01,2013-03-08 02:46:00,
2013-03-07 21:50:00,33.2,30.9,30.28,NW,323,0.0,4.0,91,0.00,,---,0.04,VWS V14.01,2013-03-08 02:50:00,
2013-03-07 21:51:00,33.2,30.9,30.28,NW,308,0.0,1.0,91,0.00,,---,0.04,VWS V14.01,2013-03-08 02:51:00,
2013-03-07 21:56:00,33.2,30.9,30.28,NE,47,0.0,2.0,91,0.00,,---,0.04,VWS V14.01,2013-03-08 02:56:00,
2013-03-07 22:00:00,33.2,30.9,30.28,NW,310,3.0,5.0,91,0.00,,---,0.04,VWS V14.01,2013-03-08 03:00:00,
2013-03-07 22:01:00,33.2,30.9,30.28,NW,326,1.0,3.0,91,0.00,,---,0.04,VWS V14.01,2013-03-08 03:01:00,
2013-03-07 22:07:00,33.2,30.9,30.28,NW,323,1.0,3.0,91,0.00,,---,0.04,VWS V14.01,2013-03-08 03:07:00,
2013-03-07 22:10:00,33.2,30.9,30.28,NW,310,0.0,3.0,91,0.00,,---,0.04,VWS V14.01,2013-03-08 03:10:00,
2013-03-07 22:12:00,33.2,30.9,30.28,WNW,299,1.0,4.0,91,0.00,,---,0.04,VWS V14.01,2013-03-08 03:12:00,
2013-03-07 22:17:00,33.2,30.9,30.28,NW,307,1.0,4.0,91,0.00,,---,0.04,VWS V14.01,2013-03-08 03:17:00,
2013-03-07 22:20:00,33.1,30.8,30.28,NW,305,1.0,4.0,91,0.00,,---,0.04,VWS V14.01,2013-03-08 03:20:00,
2013-03-07 22:22:00,33.1,30.8,30.28,WNW,299,0.0,3.0,91,0.00,,---,0.04,VWS V14.01,2013-03-08 03:22:00,
2013-03-07 22:27:00,33.0,30.7,30.28,North,355,0.0,3.0,91,0.00,,---,0.04,VWS V14.01,2013-03-08 03:27:00,
2013-03-07 22:30:00,33.0,30.7,30.28,NW,309,3.0,7.0,91,0.00,,---,0.04,VWS V14.01,2013-03-08 03:30:00,
2013-03-07 22:32:00,32.9,30.6,30.28,NW,310,2.0,3.0,91,0.00,,---,0.04,VWS V14.01,2013-03-08 03:32:00,
2013-03-07 22:37:00,32.9,30.3,30.28,WNW,295,4.0,5.0,90,0.00,,---,0.04,VWS V14.01,2013-03-08 03:37:00,
2013-03-07 22:40:00,32.9,30.0,30.28,WNW,284,4.0,6.0,89,0.00,,---,0.04,VWS V14.01,2013-03-08 03:40:00,
2013-03-07 22:42:00,32.8,29.9,30.28,NNW,337,6.0,6.0,89,0.00,,---,0.04,VWS V14.01,2013-03-08 03:42:00,
2013-03-07 22:47:00,32.8,29.6,30.28,WSW,257,1.0,6.0,88,0.00,,---,0.04,VWS V14.01,2013-03-08 03:47:00,
2013-03-07 22:50:00,32.8,29.6,30.28,WNW,286,1.0,6.0,88,0.00,,---,0.04,VWS V14.01,2013-03-08 03:50:00,
2013-03-07 22:52:00,32.8,29.6,30.28,NW,322,5.0,6.0,88,0.00,,---,0.04,VWS V14.01,2013-03-08 03:52:00,
2013-03-07 22:57:00,32.8,29.4,30.28,NNW,327,4.0,7.0,87,0.00,,---,0.04,VWS V14.01,2013-03-08 03:57:00,
2013-03-07 23:00:00,32.8,29.1,30.28,NW,322,4.0,8.0,86,0.00,,---,0.04,VWS V14.01,2013-03-08 04:00:00,
2013-03-07 23:02:00,32.8,29.1,30.28,NW,310,5.0,5.0,86,0.00,,---,0.04,VWS V14.01,2013-03-08 04:02:00,
2013-03-07 23:07:00,32.7,28.7,30.28,NW,324,3.0,11.0,85,0.00,,---,0.04,VWS V14.01,2013-03-08 04:07:00,
2013-03-07 23:10:00,32.7,28.7,30.28,West,281,4.0,11.0,85,0.00,,---,0.04,VWS V14.01,2013-03-08 04:10:00,
2013-03-07 23:12:00,32.7,28.7,30.28,West,280,4.0,8.0,85,0.00,,---,0.04,VWS V14.01,2013-03-08 04:12:00,